createdAt,value
2022-09-27T00:02:30.945Z,92785.00
2022-09-27T00:07:23.258Z,92788.00
2022-09-27T00:11:39.994Z,92774.00
2022-09-27T00:15:59.927Z,92765.00
2022-09-27T00:20:02.999Z,92764.00
2022-09-27T00:24:23.686Z,92765.00
2022-09-27T00:28:28.615Z,92772.00
2022-09-27T00:38:04.747Z,92762.00
2022-09-27T00:42:34.294Z,92754.00
2022-09-27T00:46:48.216Z,92755.00
2022-09-27T00:51:58.338Z,92754.00
2022-09-27T00:56:12.452Z,92743.00
2022-09-27T01:00:15.416Z,92740.00
2022-09-27T01:05:32.153Z,92729.00
2022-09-27T01:10:02.488Z,92721.00
2022-09-27T01:14:27.680Z,92715.00
2022-09-27T01:18:41.836Z,92700.00
2022-09-27T01:23:23.082Z,92694.00
2022-09-27T01:28:12.957Z,92689.00
2022-09-27T01:32:44.775Z,92680.00
2022-09-27T01:37:47.333Z,92684.00
2022-09-27T01:42:13.471Z,92685.00
2022-09-27T01:46:46.155Z,92674.00
2022-09-27T01:51:31.910Z,92666.00
2022-09-27T01:55:37.749Z,92665.00
2022-09-27T02:00:16.855Z,92665.00
2022-09-27T02:04:30.197Z,92657.00
2022-09-27T02:08:55.585Z,92641.00
2022-09-27T02:13:48.572Z,92648.00
2022-09-27T02:18:18.871Z,92633.00
2022-09-27T02:22:42.514Z,92638.00
2022-09-27T02:32:44.674Z,92629.00
2022-09-27T02:36:48.578Z,92630.00
2022-09-27T02:40:50.830Z,92623.00
2022-09-27T02:44:55.940Z,92619.00
2022-09-27T02:49:39.179Z,92623.00
2022-09-27T02:54:31.737Z,92615.00
2022-09-27T02:59:32.493Z,92611.00
2022-09-27T03:04:40.879Z,92601.00
2022-09-27T03:08:44.339Z,92594.00
2022-09-27T03:12:50.451Z,92595.00
2022-09-27T03:16:52.701Z,92596.00
2022-09-27T03:21:18.140Z,92567.00
2022-09-27T03:25:23.801Z,92555.00
2022-09-27T03:29:49.205Z,92559.00
2022-09-27T03:33:51.448Z,92552.00
2022-09-27T03:38:10.995Z,92552.00
2022-09-27T03:42:48.953Z,92551.00
2022-09-27T03:47:16.910Z,92564.00
2022-09-27T03:51:20.033Z,92551.00
2022-09-27T03:55:22.275Z,92538.00
2022-09-27T03:59:24.262Z,92535.00
2022-09-27T04:03:47.289Z,92524.00
2022-09-27T04:08:32.358Z,92526.00
2022-09-27T04:12:34.773Z,92528.00
2022-09-27T04:16:40.711Z,92534.00
2022-09-27T04:20:59.218Z,92534.00
2022-09-27T04:25:26.424Z,92526.00
2022-09-27T04:29:33.845Z,92518.00
2022-09-27T04:33:50.835Z,92529.00
2022-09-27T04:37:59.693Z,92526.00
2022-09-27T04:42:01.655Z,92525.00
2022-09-27T04:46:03.804Z,92523.00
2022-09-27T04:50:08.671Z,92534.00
2022-09-27T04:54:10.772Z,92526.00
2022-09-27T04:58:26.725Z,92527.00
2022-09-27T05:02:29.657Z,92524.00
2022-09-27T05:06:32.009Z,92517.00
2022-09-27T05:10:41.135Z,92513.00
2022-09-27T05:14:43.566Z,92510.00
2022-09-27T05:18:51.160Z,92515.00
2022-09-27T05:23:31.687Z,92517.00
2022-09-27T05:27:34.177Z,92504.00
2022-09-27T05:32:08.081Z,92499.00
2022-09-27T05:36:10.588Z,92492.00
2022-09-27T05:40:36.548Z,92487.00
2022-09-27T05:44:35.539Z,92491.00
2022-09-27T05:48:38.957Z,92498.00
2022-09-27T05:52:44.063Z,92500.00
2022-09-27T05:57:01.997Z,92492.00
2022-09-27T06:01:47.474Z,92507.00
2022-09-27T06:06:11.114Z,92499.00
2022-09-27T06:10:21.259Z,92515.00
2022-09-27T06:14:23.814Z,92512.00
2022-09-27T06:19:29.308Z,92517.00
2022-09-27T06:23:33.804Z,92525.00
2022-09-27T06:27:44.655Z,92528.00
2022-09-27T06:31:57.699Z,92535.00
2022-09-27T06:36:24.674Z,92524.00
2022-09-27T06:40:29.939Z,92520.00
2022-09-27T06:44:54.501Z,92528.00
2022-09-27T06:49:29.476Z,92541.00
2022-09-27T06:53:53.214Z,92549.00
2022-09-27T07:03:05.424Z,92558.00
2022-09-27T07:07:39.933Z,92566.00
2022-09-27T07:22:11.329Z,92565.00
2022-09-27T07:27:06.380Z,92565.00
2022-09-27T07:31:14.718Z,92560.00
2022-09-27T07:35:16.890Z,92560.00
2022-09-27T07:39:26.394Z,92565.00
2022-09-27T07:43:28.645Z,92553.00
2022-09-27T07:47:31.361Z,92551.00
2022-09-27T07:52:07.046Z,92549.00
2022-09-27T07:56:41.438Z,92530.00
2022-09-27T08:00:47.709Z,92530.00
2022-09-27T08:04:50.768Z,92551.00
2022-09-27T08:08:55.980Z,92542.00
2022-09-27T08:14:07.399Z,92546.00
2022-09-27T08:18:38.445Z,92552.00
2022-09-27T08:22:59.581Z,92549.00
2022-09-27T08:27:14.063Z,92552.00
2022-09-27T08:31:26.300Z,92565.00
2022-09-27T08:35:34.080Z,92565.00
2022-09-27T08:39:38.320Z,92553.00
2022-09-27T08:43:44.687Z,92553.00
2022-09-27T08:47:55.262Z,92562.00
2022-09-27T08:52:17.588Z,92549.00
2022-09-27T08:56:33.328Z,92551.00
2022-09-27T09:00:37.029Z,92560.00
2022-09-27T09:04:44.664Z,92564.00
2022-09-27T09:09:02.227Z,92562.00
2022-09-27T09:13:14.368Z,92566.00
2022-09-27T09:17:39.354Z,92570.00
2022-09-27T09:22:14.864Z,92566.00
2022-09-27T09:26:38.867Z,92572.00
2022-09-27T09:31:21.106Z,92573.00
2022-09-27T09:35:32.835Z,92559.00
2022-09-27T09:40:08.956Z,92556.00
2022-09-27T09:44:27.881Z,92556.00
2022-09-27T09:49:02.261Z,92541.00
2022-09-27T09:53:48.538Z,92536.00
2022-09-27T09:58:20.158Z,92532.00
2022-09-27T10:02:55.251Z,92534.00
2022-09-27T10:06:59.985Z,92528.00
2022-09-27T10:11:12.296Z,92518.00
2022-09-27T10:15:34.251Z,92521.00
2022-09-27T10:19:39.788Z,92524.00
2022-09-27T10:24:12.301Z,92517.00
2022-09-27T10:28:46.192Z,92515.00
2022-09-27T10:32:58.267Z,92517.00
2022-09-27T10:37:22.300Z,92513.00
2022-09-27T10:41:37.853Z,92524.00
2022-09-27T10:46:15.392Z,92528.00
2022-09-27T10:55:51.371Z,92519.00
2022-09-27T10:59:57.148Z,92536.00
2022-09-27T11:04:00.476Z,92536.00
2022-09-27T11:08:24.237Z,92538.00
2022-09-27T11:13:15.654Z,92541.00
2022-09-27T11:17:58.643Z,92527.00
2022-09-27T11:22:26.205Z,92521.00
2022-09-27T11:26:31.465Z,92513.00
2022-09-27T11:30:50.313Z,92511.00
2022-09-27T11:51:45.370Z,92507.00
2022-09-27T11:56:07.397Z,92492.00
2022-09-27T12:00:24.724Z,92500.00
2022-09-27T12:05:23.257Z,92506.00
2022-09-27T12:09:43.476Z,92499.00
2022-09-27T12:13:53.015Z,92494.00
2022-09-27T12:18:51.479Z,92502.00
2022-09-27T12:23:52.213Z,92508.00
2022-09-27T12:28:41.068Z,92513.00
2022-09-27T12:33:07.594Z,92517.00
2022-09-27T12:37:20.572Z,92506.00
2022-09-27T12:41:25.462Z,92511.00
2022-09-27T12:46:18.010Z,92536.00
2022-09-27T12:50:47.930Z,92536.00
2022-09-27T12:55:27.933Z,92531.00
2022-09-27T12:59:39.194Z,92548.00
2022-09-27T13:04:16.704Z,92547.00
2022-09-27T13:08:50.812Z,92550.00
2022-09-27T13:13:01.324Z,92554.00
2022-09-27T13:17:05.467Z,92556.00
2022-09-27T13:21:09.645Z,92559.00
2022-09-27T13:31:54.539Z,92557.00
2022-09-27T13:36:30.619Z,92541.00
2022-09-27T13:40:43.137Z,92539.00
2022-09-27T13:45:20.521Z,92561.00
2022-09-27T13:50:14.997Z,92552.00
2022-09-27T13:54:56.260Z,92561.00
2022-09-27T13:59:08.676Z,92555.00
2022-09-27T14:03:53.634Z,92564.00
2022-09-27T14:09:07.721Z,92570.00
2022-09-27T14:13:38.539Z,92575.00
2022-09-27T14:17:47.759Z,92571.00
2022-09-27T14:22:12.232Z,92564.00
2022-09-27T14:26:27.706Z,92573.00
2022-09-27T14:30:35.534Z,92575.00
2022-09-27T14:35:35.412Z,92592.00
2022-09-27T14:39:38.102Z,92580.00
2022-09-27T14:44:27.439Z,92595.00
2022-09-27T14:48:56.508Z,92591.00
2022-09-27T14:53:49.254Z,92592.00
2022-09-27T14:58:42.921Z,92584.00
2022-09-27T15:02:44.109Z,92608.00
2022-09-27T15:07:39.299Z,92610.00
2022-09-27T15:12:10.980Z,92620.00
2022-09-27T15:17:15.784Z,92621.00
2022-09-27T15:22:31.383Z,92627.00
2022-09-27T15:26:51.239Z,92634.00
2022-09-27T15:30:57.075Z,92639.00
2022-09-27T15:35:08.465Z,92640.00
2022-09-27T15:39:17.902Z,92655.00
2022-09-27T15:49:14.415Z,92656.00
2022-09-27T15:53:34.776Z,92660.00
2022-09-27T15:57:40.473Z,92674.00
2022-09-27T16:01:42.799Z,92673.00
2022-09-27T16:05:47.399Z,92679.00
2022-09-27T16:10:49.179Z,92689.00
2022-09-27T16:14:54.555Z,92678.00
2022-09-27T16:18:57.925Z,92692.00
2022-09-27T16:23:26.419Z,92707.00
2022-09-27T16:27:45.071Z,92685.00
2022-09-27T16:31:48.227Z,92687.00
2022-09-27T16:36:20.665Z,92694.00
2022-09-27T16:40:23.503Z,92691.00
2022-09-27T16:44:25.572Z,92701.00
2022-09-27T16:48:27.580Z,92692.00
2022-09-27T16:52:32.593Z,92701.00
2022-09-27T16:56:59.954Z,92704.00
2022-09-27T17:01:03.258Z,92702.00
2022-09-27T17:05:06.258Z,92706.00
2022-09-27T17:09:35.344Z,92709.00
2022-09-27T17:13:39.694Z,92720.00
2022-09-27T17:17:50.901Z,92711.00
2022-09-27T17:21:52.839Z,92706.00
2022-09-27T17:26:57.390Z,92707.00
2022-09-27T17:31:12.169Z,92706.00
2022-09-27T17:35:29.646Z,92712.00
2022-09-27T17:40:23.100Z,92703.00
2022-09-27T17:44:29.619Z,92692.00
2022-09-27T17:48:50.526Z,92689.00
2022-09-27T17:53:01.110Z,92705.00
2022-09-27T17:57:04.197Z,92694.00
2022-09-27T18:01:07.423Z,92684.00
2022-09-27T18:05:12.144Z,92699.00
2022-09-27T18:09:30.957Z,92699.00
2022-09-27T18:14:00.597Z,92711.00
2022-09-27T18:18:08.992Z,92703.00
2022-09-27T18:22:39.269Z,92703.00
2022-09-27T18:26:46.764Z,92710.00
2022-09-27T18:30:48.988Z,92710.00
2022-09-27T18:34:58.181Z,92703.00
2022-09-27T18:39:26.351Z,92712.00
2022-09-27T18:43:45.476Z,92719.00
2022-09-27T18:47:47.436Z,92719.00
2022-09-27T18:52:07.772Z,92709.00
2022-09-27T18:56:15.755Z,92728.00
2022-09-27T19:00:18.100Z,92723.00
2022-09-27T19:04:24.222Z,92732.00
2022-09-27T19:08:26.469Z,92733.00
2022-09-27T19:12:28.300Z,92727.00
2022-09-27T19:16:31.167Z,92712.00
2022-09-27T19:21:23.005Z,92725.00
2022-09-27T19:25:27.246Z,92726.00
2022-09-27T19:29:29.510Z,92720.00
2022-09-27T19:33:35.349Z,92726.00
2022-09-27T19:37:37.334Z,92729.00
2022-09-27T19:41:40.494Z,92725.00
2022-09-27T19:45:43.476Z,92728.00
2022-09-27T19:49:45.640Z,92733.00
2022-09-27T19:53:47.955Z,92731.00
2022-09-27T19:58:17.171Z,92730.00
2022-09-27T20:02:24.795Z,92714.00
2022-09-27T20:06:32.083Z,92717.00
2022-09-27T20:11:06.755Z,92716.00
2022-09-27T20:16:00.163Z,92703.00
2022-09-27T20:20:02.400Z,92711.00
2022-09-27T20:24:05.831Z,92718.00
2022-09-27T20:28:07.985Z,92718.00
2022-09-27T20:32:28.060Z,92715.00
2022-09-27T20:36:56.067Z,92729.00
2022-09-27T20:40:59.326Z,92730.00
2022-09-27T20:45:01.499Z,92724.00
2022-09-27T20:49:07.303Z,92733.00
2022-09-27T20:53:10.384Z,92715.00
2022-09-27T20:57:14.703Z,92720.00
2022-09-27T21:01:19.064Z,92717.00
2022-09-27T21:05:28.269Z,92724.00
2022-09-27T21:10:08.041Z,92727.00
2022-09-27T21:14:10.564Z,92736.00
2022-09-27T21:18:12.863Z,92736.00
2022-09-27T21:22:16.070Z,92738.00
2022-09-27T21:26:20.638Z,92737.00
2022-09-27T21:30:25.438Z,92731.00
2022-09-27T21:34:40.911Z,92738.00
2022-09-27T21:39:09.539Z,92747.00
2022-09-27T21:43:53.124Z,92739.00
2022-09-27T21:47:55.466Z,92730.00
2022-09-27T21:57:31.573Z,92725.00
2022-09-27T22:01:35.094Z,92728.00
2022-09-27T22:05:49.999Z,92737.00
2022-09-27T22:10:18.013Z,92737.00
2022-09-27T22:14:23.405Z,92729.00
2022-09-27T22:18:25.448Z,92725.00
2022-09-27T22:22:52.400Z,92734.00
2022-09-27T22:26:54.668Z,92734.00
2022-09-27T22:30:57.079Z,92731.00
2022-09-27T22:34:59.300Z,92723.00
2022-09-27T22:39:01.593Z,92714.00
2022-09-27T22:43:04.029Z,92710.00
2022-09-27T22:47:06.365Z,92715.00
2022-09-27T22:51:13.430Z,92709.00
2022-09-27T22:55:31.990Z,92706.00
2022-09-27T23:00:00.332Z,92702.00
2022-09-27T23:04:03.594Z,92700.00
2022-09-27T23:09:15.568Z,92702.00
2022-09-27T23:13:18.179Z,92701.00
2022-09-27T23:17:20.509Z,92699.00
2022-09-27T23:22:13.901Z,92713.00
2022-09-27T23:26:44.408Z,92712.00
2022-09-27T23:30:46.390Z,92706.00
2022-09-27T23:34:48.981Z,92711.00
2022-09-27T23:39:10.451Z,92712.00
2022-09-27T23:43:12.788Z,92709.00
2022-09-27T23:47:15.175Z,92715.00
2022-09-27T23:51:17.580Z,92704.00
2022-09-27T23:55:19.772Z,92710.00
2022-09-27T23:59:22.041Z,92703.00
